sensor_id;sensor_type;location;lat;lon;timestamp;P1;durP1;ratioP1;P2;durP2;ratioP2
46721;SDS011;32455;43.430;23.136;2024-01-06T00:00:47;9.07;;;5.32;;
46721;SDS011;32455;43.430;23.136;2024-01-06T00:03:34;10.60;;;4.82;;
46721;SDS011;32455;43.430;23.136;2024-01-06T00:06:19;8.68;;;4.72;;
46721;SDS011;32455;43.430;23.136;2024-01-06T00:09:05;8.50;;;4.78;;
46721;SDS011;32455;43.430;23.136;2024-01-06T00:11:51;7.18;;;4.00;;
46721;SDS011;32455;43.430;23.136;2024-01-06T00:14:36;6.82;;;4.60;;
46721;SDS011;32455;43.430;23.136;2024-01-06T00:17:21;5.68;;;4.35;;
46721;SDS011;32455;43.430;23.136;2024-01-06T00:20:07;6.38;;;4.40;;
46721;SDS011;32455;43.430;23.136;2024-01-06T00:22:52;7.03;;;4.32;;
46721;SDS011;32455;43.430;23.136;2024-01-06T00:25:37;6.28;;;4.95;;
46721;SDS011;32455;43.430;23.136;2024-01-06T00:28:22;5.57;;;3.95;;
46721;SDS011;32455;43.430;23.136;2024-01-06T00:31:08;5.50;;;3.80;;
46721;SDS011;32455;43.430;23.136;2024-01-06T00:33:53;5.60;;;3.78;;
46721;SDS011;32455;43.430;23.136;2024-01-06T00:36:39;6.57;;;3.67;;
46721;SDS011;32455;43.430;23.136;2024-01-06T00:39:24;5.13;;;3.50;;
46721;SDS011;32455;43.430;23.136;2024-01-06T00:42:09;6.72;;;4.28;;
46721;SDS011;32455;43.430;23.136;2024-01-06T00:44:55;6.53;;;3.80;;
46721;SDS011;32455;43.430;23.136;2024-01-06T00:47:40;6.28;;;4.03;;
46721;SDS011;32455;43.430;23.136;2024-01-06T00:50:25;6.32;;;3.53;;
46721;SDS011;32455;43.430;23.136;2024-01-06T00:53:11;9.95;;;4.63;;
46721;SDS011;32455;43.430;23.136;2024-01-06T00:55:56;9.43;;;4.75;;
46721;SDS011;32455;43.430;23.136;2024-01-06T00:58:42;5.68;;;4.20;;
46721;SDS011;32455;43.430;23.136;2024-01-06T01:01:27;7.68;;;4.60;;
46721;SDS011;32455;43.430;23.136;2024-01-06T01:04:12;7.07;;;4.40;;
46721;SDS011;32455;43.430;23.136;2024-01-06T01:06:57;6.68;;;4.10;;
46721;SDS011;32455;43.430;23.136;2024-01-06T01:09:42;6.25;;;4.18;;
46721;SDS011;32455;43.430;23.136;2024-01-06T01:12:27;7.90;;;4.10;;
46721;SDS011;32455;43.430;23.136;2024-01-06T01:15:13;6.95;;;4.07;;
46721;SDS011;32455;43.430;23.136;2024-01-06T01:17:58;6.35;;;4.00;;
46721;SDS011;32455;43.430;23.136;2024-01-06T01:20:43;8.10;;;4.20;;
46721;SDS011;32455;43.430;23.136;2024-01-06T01:23:29;7.97;;;4.25;;
46721;SDS011;32455;43.430;23.136;2024-01-06T01:26:14;6.57;;;4.57;;
46721;SDS011;32455;43.430;23.136;2024-01-06T01:29:00;7.22;;;4.43;;
46721;SDS011;32455;43.430;23.136;2024-01-06T01:31:45;8.63;;;4.53;;
46721;SDS011;32455;43.430;23.136;2024-01-06T01:34:30;7.40;;;4.32;;
46721;SDS011;32455;43.430;23.136;2024-01-06T01:37:15;6.25;;;4.32;;
46721;SDS011;32455;43.430;23.136;2024-01-06T01:40:00;7.05;;;4.00;;
46721;SDS011;32455;43.430;23.136;2024-01-06T01:42:46;8.43;;;4.50;;
46721;SDS011;32455;43.430;23.136;2024-01-06T01:45:31;6.22;;;3.92;;
46721;SDS011;32455;43.430;23.136;2024-01-06T01:48:17;8.32;;;5.07;;
46721;SDS011;32455;43.430;23.136;2024-01-06T01:51:04;7.30;;;4.25;;
46721;SDS011;32455;43.430;23.136;2024-01-06T01:53:50;7.03;;;4.78;;
46721;SDS011;32455;43.430;23.136;2024-01-06T01:56:35;10.10;;;4.72;;
46721;SDS011;32455;43.430;23.136;2024-01-06T01:59:22;6.72;;;4.72;;
46721;SDS011;32455;43.430;23.136;2024-01-06T02:02:08;5.45;;;4.45;;
46721;SDS011;32455;43.430;23.136;2024-01-06T02:04:55;10.90;;;5.45;;
46721;SDS011;32455;43.430;23.136;2024-01-06T02:07:41;5.57;;;4.53;;
46721;SDS011;32455;43.430;23.136;2024-01-06T02:10:26;7.13;;;4.65;;
46721;SDS011;32455;43.430;23.136;2024-01-06T02:13:11;7.40;;;5.30;;
46721;SDS011;32455;43.430;23.136;2024-01-06T02:15:57;8.48;;;4.75;;
46721;SDS011;32455;43.430;23.136;2024-01-06T02:18:42;7.50;;;4.57;;
46721;SDS011;32455;43.430;23.136;2024-01-06T02:21:27;8.85;;;5.30;;
46721;SDS011;32455;43.430;23.136;2024-01-06T02:24:13;7.78;;;5.18;;
46721;SDS011;32455;43.430;23.136;2024-01-06T02:26:59;9.23;;;4.60;;
46721;SDS011;32455;43.430;23.136;2024-01-06T02:29:44;8.90;;;5.45;;
46721;SDS011;32455;43.430;23.136;2024-01-06T02:32:30;7.25;;;5.00;;
46721;SDS011;32455;43.430;23.136;2024-01-06T02:35:15;7.30;;;4.72;;
46721;SDS011;32455;43.430;23.136;2024-01-06T02:38:01;6.47;;;4.78;;
46721;SDS011;32455;43.430;23.136;2024-01-06T02:40:46;12.80;;;7.28;;
46721;SDS011;32455;43.430;23.136;2024-01-06T02:43:31;7.60;;;5.38;;
46721;SDS011;32455;43.430;23.136;2024-01-06T02:46:17;7.15;;;5.03;;
46721;SDS011;32455;43.430;23.136;2024-01-06T02:49:02;8.00;;;4.80;;
46721;SDS011;32455;43.430;23.136;2024-01-06T02:51:47;8.43;;;4.65;;
46721;SDS011;32455;43.430;23.136;2024-01-06T02:54:33;9.77;;;4.70;;
46721;SDS011;32455;43.430;23.136;2024-01-06T02:57:18;6.72;;;4.28;;
46721;SDS011;32455;43.430;23.136;2024-01-06T03:00:03;5.75;;;4.47;;
46721;SDS011;32455;43.430;23.136;2024-01-06T03:02:49;8.65;;;5.03;;
46721;SDS011;32455;43.430;23.136;2024-01-06T03:05:34;11.43;;;5.45;;
46721;SDS011;32455;43.430;23.136;2024-01-06T03:08:21;7.13;;;5.00;;
46721;SDS011;32455;43.430;23.136;2024-01-06T03:11:07;7.80;;;4.90;;
46721;SDS011;32455;43.430;23.136;2024-01-06T03:13:52;7.85;;;5.35;;
46721;SDS011;32455;43.430;23.136;2024-01-06T03:16:37;8.30;;;5.28;;
46721;SDS011;32455;43.430;23.136;2024-01-06T03:19:21;9.48;;;6.00;;
46721;SDS011;32455;43.430;23.136;2024-01-06T03:22:09;12.90;;;5.65;;
46721;SDS011;32455;43.430;23.136;2024-01-06T03:24:55;12.45;;;7.10;;
46721;SDS011;32455;43.430;23.136;2024-01-06T03:27:40;11.32;;;6.05;;
46721;SDS011;32455;43.430;23.136;2024-01-06T03:30:25;10.02;;;5.88;;
46721;SDS011;32455;43.430;23.136;2024-01-06T03:33:11;10.95;;;6.60;;
46721;SDS011;32455;43.430;23.136;2024-01-06T03:35:57;10.20;;;6.10;;
46721;SDS011;32455;43.430;23.136;2024-01-06T03:38:42;7.40;;;5.22;;
46721;SDS011;32455;43.430;23.136;2024-01-06T03:41:27;11.10;;;6.43;;
46721;SDS011;32455;43.430;23.136;2024-01-06T03:44:12;10.15;;;5.93;;
46721;SDS011;32455;43.430;23.136;2024-01-06T03:46:58;7.45;;;5.00;;
46721;SDS011;32455;43.430;23.136;2024-01-06T03:49:44;7.68;;;5.28;;
46721;SDS011;32455;43.430;23.136;2024-01-06T03:52:29;7.63;;;4.43;;
46721;SDS011;32455;43.430;23.136;2024-01-06T03:55:15;10.60;;;5.03;;
46721;SDS011;32455;43.430;23.136;2024-01-06T03:58:01;12.82;;;5.80;;
46721;SDS011;32455;43.430;23.136;2024-01-06T04:00:47;8.82;;;4.93;;
46721;SDS011;32455;43.430;23.136;2024-01-06T04:03:32;9.40;;;5.40;;
46721;SDS011;32455;43.430;23.136;2024-01-06T04:06:18;6.45;;;4.38;;
46721;SDS011;32455;43.430;23.136;2024-01-06T04:09:03;5.90;;;4.75;;
46721;SDS011;32455;43.430;23.136;2024-01-06T04:11:50;8.57;;;5.20;;
46721;SDS011;32455;43.430;23.136;2024-01-06T04:14:35;6.82;;;4.63;;
46721;SDS011;32455;43.430;23.136;2024-01-06T04:17:20;15.50;;;5.90;;
46721;SDS011;32455;43.430;23.136;2024-01-06T04:20:06;10.85;;;5.32;;
46721;SDS011;32455;43.430;23.136;2024-01-06T04:22:52;9.77;;;5.53;;
46721;SDS011;32455;43.430;23.136;2024-01-06T04:25:37;9.30;;;5.88;;
46721;SDS011;32455;43.430;23.136;2024-01-06T04:28:22;10.43;;;6.75;;
46721;SDS011;32455;43.430;23.136;2024-01-06T04:31:08;12.05;;;7.00;;
46721;SDS011;32455;43.430;23.136;2024-01-06T04:33:53;9.95;;;6.65;;
46721;SDS011;32455;43.430;23.136;2024-01-06T04:36:38;11.43;;;6.80;;
46721;SDS011;32455;43.430;23.136;2024-01-06T04:39:24;9.52;;;7.30;;
46721;SDS011;32455;43.430;23.136;2024-01-06T04:42:09;14.75;;;7.95;;
46721;SDS011;32455;43.430;23.136;2024-01-06T04:44:54;12.23;;;8.00;;
46721;SDS011;32455;43.430;23.136;2024-01-06T04:47:40;14.45;;;8.15;;
46721;SDS011;32455;43.430;23.136;2024-01-06T04:50:25;13.00;;;9.48;;
46721;SDS011;32455;43.430;23.136;2024-01-06T04:53:10;12.32;;;9.40;;
46721;SDS011;32455;43.430;23.136;2024-01-06T04:55:55;15.23;;;8.95;;
46721;SDS011;32455;43.430;23.136;2024-01-06T04:58:41;15.77;;;8.85;;
46721;SDS011;32455;43.430;23.136;2024-01-06T05:01:26;15.82;;;9.35;;
46721;SDS011;32455;43.430;23.136;2024-01-06T05:04:11;15.57;;;9.75;;
46721;SDS011;32455;43.430;23.136;2024-01-06T05:06:56;25.15;;;14.15;;
46721;SDS011;32455;43.430;23.136;2024-01-06T05:09:41;30.35;;;14.50;;
46721;SDS011;32455;43.430;23.136;2024-01-06T05:12:27;31.63;;;13.90;;
46721;SDS011;32455;43.430;23.136;2024-01-06T05:15:13;32.75;;;16.02;;
46721;SDS011;32455;43.430;23.136;2024-01-06T05:17:58;33.20;;;16.67;;
46721;SDS011;32455;43.430;23.136;2024-01-06T05:20:43;28.85;;;16.27;;
46721;SDS011;32455;43.430;23.136;2024-01-06T05:23:29;28.27;;;15.98;;
46721;SDS011;32455;43.430;23.136;2024-01-06T05:26:14;29.65;;;16.50;;
46721;SDS011;32455;43.430;23.136;2024-01-06T05:28:59;28.23;;;16.98;;
46721;SDS011;32455;43.430;23.136;2024-01-06T05:31:45;30.52;;;17.92;;
46721;SDS011;32455;43.430;23.136;2024-01-06T05:34:32;31.65;;;18.38;;
46721;SDS011;32455;43.430;23.136;2024-01-06T05:37:18;36.88;;;22.60;;
46721;SDS011;32455;43.430;23.136;2024-01-06T05:40:04;29.60;;;19.00;;
46721;SDS011;32455;43.430;23.136;2024-01-06T05:42:53;26.33;;;16.05;;
46721;SDS011;32455;43.430;23.136;2024-01-06T05:45:40;28.38;;;16.83;;
46721;SDS011;32455;43.430;23.136;2024-01-06T05:48:28;25.58;;;16.25;;
46721;SDS011;32455;43.430;23.136;2024-01-06T05:51:13;21.55;;;12.57;;
46721;SDS011;32455;43.430;23.136;2024-01-06T05:53:58;14.93;;;9.43;;
46721;SDS011;32455;43.430;23.136;2024-01-06T05:56:44;17.38;;;10.25;;
46721;SDS011;32455;43.430;23.136;2024-01-06T05:59:32;15.35;;;9.20;;
46721;SDS011;32455;43.430;23.136;2024-01-06T06:02:18;15.57;;;9.43;;
46721;SDS011;32455;43.430;23.136;2024-01-06T06:05:03;15.20;;;9.52;;
46721;SDS011;32455;43.430;23.136;2024-01-06T06:07:49;15.93;;;9.25;;
46721;SDS011;32455;43.430;23.136;2024-01-06T06:10:34;15.65;;;9.88;;
46721;SDS011;32455;43.430;23.136;2024-01-06T06:13:37;15.52;;;10.10;;
46721;SDS011;32455;43.430;23.136;2024-01-06T06:16:23;15.80;;;9.80;;
46721;SDS011;32455;43.430;23.136;2024-01-06T06:19:08;12.93;;;8.68;;
46721;SDS011;32455;43.430;23.136;2024-01-06T06:21:54;15.45;;;9.90;;
46721;SDS011;32455;43.430;23.136;2024-01-06T06:24:39;12.50;;;8.65;;
46721;SDS011;32455;43.430;23.136;2024-01-06T06:27:25;20.05;;;12.40;;
46721;SDS011;32455;43.430;23.136;2024-01-06T06:30:11;20.80;;;12.73;;
46721;SDS011;32455;43.430;23.136;2024-01-06T06:32:56;15.77;;;10.88;;
46721;SDS011;32455;43.430;23.136;2024-01-06T06:35:42;15.70;;;10.32;;
46721;SDS011;32455;43.430;23.136;2024-01-06T06:38:27;19.17;;;11.07;;
46721;SDS011;32455;43.430;23.136;2024-01-06T06:41:12;17.67;;;11.18;;
46721;SDS011;32455;43.430;23.136;2024-01-06T06:43:57;16.40;;;11.02;;
46721;SDS011;32455;43.430;23.136;2024-01-06T06:46:43;16.92;;;10.65;;
46721;SDS011;32455;43.430;23.136;2024-01-06T06:49:28;17.40;;;11.52;;
46721;SDS011;32455;43.430;23.136;2024-01-06T06:52:13;12.93;;;9.82;;
46721;SDS011;32455;43.430;23.136;2024-01-06T06:54:57;18.60;;;10.13;;
46721;SDS011;32455;43.430;23.136;2024-01-06T06:57:42;13.40;;;9.80;;
46721;SDS011;32455;43.430;23.136;2024-01-06T07:00:27;13.20;;;10.00;;
46721;SDS011;32455;43.430;23.136;2024-01-06T07:03:13;20.45;;;10.50;;
46721;SDS011;32455;43.430;23.136;2024-01-06T07:05:59;18.80;;;13.05;;
46721;SDS011;32455;43.430;23.136;2024-01-06T07:08:44;28.52;;;20.02;;
46721;SDS011;32455;43.430;23.136;2024-01-06T07:11:29;24.08;;;17.83;;
46721;SDS011;32455;43.430;23.136;2024-01-06T07:14:15;34.97;;;22.00;;
46721;SDS011;32455;43.430;23.136;2024-01-06T07:17:00;37.17;;;23.98;;
46721;SDS011;32455;43.430;23.136;2024-01-06T07:19:46;41.88;;;25.00;;
46721;SDS011;32455;43.430;23.136;2024-01-06T07:22:31;32.92;;;20.83;;
46721;SDS011;32455;43.430;23.136;2024-01-06T07:25:16;30.98;;;19.10;;
46721;SDS011;32455;43.430;23.136;2024-01-06T07:28:02;28.27;;;16.98;;
46721;SDS011;32455;43.430;23.136;2024-01-06T07:30:48;22.27;;;14.75;;
46721;SDS011;32455;43.430;23.136;2024-01-06T07:33:33;25.75;;;16.90;;
46721;SDS011;32455;43.430;23.136;2024-01-06T07:36:19;24.58;;;16.83;;
46721;SDS011;32455;43.430;23.136;2024-01-06T07:39:04;18.63;;;12.75;;
46721;SDS011;32455;43.430;23.136;2024-01-06T07:41:50;17.45;;;12.05;;
46721;SDS011;32455;43.430;23.136;2024-01-06T07:44:36;15.50;;;11.02;;
46721;SDS011;32455;43.430;23.136;2024-01-06T07:47:21;14.43;;;10.65;;
46721;SDS011;32455;43.430;23.136;2024-01-06T07:50:06;21.08;;;11.43;;
46721;SDS011;32455;43.430;23.136;2024-01-06T07:52:53;14.43;;;10.52;;
46721;SDS011;32455;43.430;23.136;2024-01-06T07:55:39;14.80;;;10.18;;
46721;SDS011;32455;43.430;23.136;2024-01-06T07:58:24;19.67;;;11.52;;
46721;SDS011;32455;43.430;23.136;2024-01-06T08:01:10;20.58;;;12.63;;
46721;SDS011;32455;43.430;23.136;2024-01-06T08:03:55;19.45;;;12.63;;
46721;SDS011;32455;43.430;23.136;2024-01-06T08:06:41;18.00;;;13.98;;
46721;SDS011;32455;43.430;23.136;2024-01-06T08:09:26;18.33;;;12.82;;
46721;SDS011;32455;43.430;23.136;2024-01-06T08:12:12;19.15;;;14.27;;
46721;SDS011;32455;43.430;23.136;2024-01-06T08:14:57;20.42;;;13.63;;
46721;SDS011;32455;43.430;23.136;2024-01-06T08:17:42;20.40;;;13.20;;
46721;SDS011;32455;43.430;23.136;2024-01-06T08:20:28;22.42;;;13.20;;
46721;SDS011;32455;43.430;23.136;2024-01-06T08:23:13;15.15;;;11.38;;
46721;SDS011;32455;43.430;23.136;2024-01-06T08:25:59;29.52;;;18.80;;
46721;SDS011;32455;43.430;23.136;2024-01-06T08:28:44;29.45;;;15.82;;
46721;SDS011;32455;43.430;23.136;2024-01-06T08:31:28;15.43;;;11.15;;
46721;SDS011;32455;43.430;23.136;2024-01-06T08:34:13;16.38;;;11.75;;
46721;SDS011;32455;43.430;23.136;2024-01-06T08:36:58;15.73;;;10.70;;
46721;SDS011;32455;43.430;23.136;2024-01-06T08:39:43;14.38;;;10.20;;
46721;SDS011;32455;43.430;23.136;2024-01-06T08:42:29;21.13;;;12.52;;
46721;SDS011;32455;43.430;23.136;2024-01-06T08:45:14;19.38;;;12.05;;
46721;SDS011;32455;43.430;23.136;2024-01-06T08:48:00;14.63;;;11.25;;
46721;SDS011;32455;43.430;23.136;2024-01-06T08:50:45;19.25;;;12.55;;
46721;SDS011;32455;43.430;23.136;2024-01-06T08:53:33;21.30;;;12.65;;
46721;SDS011;32455;43.430;23.136;2024-01-06T08:56:18;16.42;;;13.60;;
46721;SDS011;32455;43.430;23.136;2024-01-06T08:59:04;19.33;;;14.32;;
46721;SDS011;32455;43.430;23.136;2024-01-06T09:01:52;22.63;;;14.25;;
46721;SDS011;32455;43.430;23.136;2024-01-06T09:04:38;21.67;;;14.68;;
46721;SDS011;32455;43.430;23.136;2024-01-06T09:07:23;71.07;;;44.15;;
46721;SDS011;32455;43.430;23.136;2024-01-06T09:10:09;23.08;;;15.65;;
46721;SDS011;32455;43.430;23.136;2024-01-06T09:12:54;19.73;;;13.65;;
46721;SDS011;32455;43.430;23.136;2024-01-06T09:15:39;20.80;;;15.52;;
46721;SDS011;32455;43.430;23.136;2024-01-06T09:18:25;24.65;;;16.52;;
46721;SDS011;32455;43.430;23.136;2024-01-06T09:21:11;19.08;;;13.88;;
46721;SDS011;32455;43.430;23.136;2024-01-06T09:23:56;16.65;;;12.27;;
46721;SDS011;32455;43.430;23.136;2024-01-06T09:26:42;18.23;;;13.48;;
46721;SDS011;32455;43.430;23.136;2024-01-06T09:29:28;25.35;;;17.27;;
46721;SDS011;32455;43.430;23.136;2024-01-06T09:32:14;25.58;;;15.80;;
46721;SDS011;32455;43.430;23.136;2024-01-06T09:34:59;25.58;;;15.27;;
46721;SDS011;32455;43.430;23.136;2024-01-06T09:37:45;19.77;;;13.73;;
46721;SDS011;32455;43.430;23.136;2024-01-06T09:40:31;19.75;;;13.93;;
46721;SDS011;32455;43.430;23.136;2024-01-06T09:43:17;25.15;;;14.30;;
46721;SDS011;32455;43.430;23.136;2024-01-06T09:46:15;21.95;;;14.13;;
46721;SDS011;32455;43.430;23.136;2024-01-06T09:49:11;15.00;;;11.63;;
46721;SDS011;32455;43.430;23.136;2024-01-06T09:51:58;16.40;;;11.57;;
46721;SDS011;32455;43.430;23.136;2024-01-06T09:54:46;17.33;;;12.65;;
46721;SDS011;32455;43.430;23.136;2024-01-06T09:57:37;17.92;;;12.52;;
46721;SDS011;32455;43.430;23.136;2024-01-06T10:00:22;18.42;;;12.38;;
46721;SDS011;32455;43.430;23.136;2024-01-06T10:03:08;17.05;;;11.88;;
46721;SDS011;32455;43.430;23.136;2024-01-06T10:05:53;19.30;;;13.18;;
46721;SDS011;32455;43.430;23.136;2024-01-06T10:08:38;19.75;;;12.50;;
46721;SDS011;32455;43.430;23.136;2024-01-06T10:11:26;17.77;;;12.00;;
46721;SDS011;32455;43.430;23.136;2024-01-06T10:14:11;15.48;;;12.60;;
46721;SDS011;32455;43.430;23.136;2024-01-06T10:16:57;27.73;;;17.25;;
46721;SDS011;32455;43.430;23.136;2024-01-06T10:19:44;42.08;;;24.08;;
46721;SDS011;32455;43.430;23.136;2024-01-06T10:22:34;29.58;;;19.08;;
46721;SDS011;32455;43.430;23.136;2024-01-06T10:25:22;28.15;;;18.60;;
46721;SDS011;32455;43.430;23.136;2024-01-06T10:28:11;29.80;;;20.27;;
46721;SDS011;32455;43.430;23.136;2024-01-06T10:30:58;32.00;;;19.73;;
46721;SDS011;32455;43.430;23.136;2024-01-06T10:33:44;40.42;;;25.65;;
46721;SDS011;32455;43.430;23.136;2024-01-06T10:36:30;44.55;;;26.90;;
46721;SDS011;32455;43.430;23.136;2024-01-06T10:39:15;36.45;;;23.30;;
46721;SDS011;32455;43.430;23.136;2024-01-06T10:41:59;94.07;;;47.80;;
46721;SDS011;32455;43.430;23.136;2024-01-06T10:44:47;64.32;;;33.20;;
46721;SDS011;32455;43.430;23.136;2024-01-06T10:47:34;27.70;;;19.02;;
46721;SDS011;32455;43.430;23.136;2024-01-06T10:50:19;25.88;;;18.10;;
46721;SDS011;32455;43.430;23.136;2024-01-06T10:53:06;28.45;;;18.55;;
46721;SDS011;32455;43.430;23.136;2024-01-06T10:55:52;38.92;;;23.02;;
46721;SDS011;32455;43.430;23.136;2024-01-06T10:58:45;39.13;;;25.35;;
46721;SDS011;32455;43.430;23.136;2024-01-06T11:01:33;26.13;;;18.92;;
46721;SDS011;32455;43.430;23.136;2024-01-06T11:04:19;33.15;;;20.52;;
46721;SDS011;32455;43.430;23.136;2024-01-06T11:07:07;21.25;;;15.88;;
46721;SDS011;32455;43.430;23.136;2024-01-06T11:10:04;19.92;;;15.48;;
46721;SDS011;32455;43.430;23.136;2024-01-06T11:13:11;18.38;;;14.40;;
46721;SDS011;32455;43.430;23.136;2024-01-06T11:15:58;25.27;;;14.85;;
46721;SDS011;32455;43.430;23.136;2024-01-06T11:18:47;23.42;;;16.05;;
46721;SDS011;32455;43.430;23.136;2024-01-06T11:21:34;20.17;;;15.52;;
46721;SDS011;32455;43.430;23.136;2024-01-06T11:24:20;19.98;;;15.02;;
46721;SDS011;32455;43.430;23.136;2024-01-06T11:27:06;25.73;;;15.15;;
46721;SDS011;32455;43.430;23.136;2024-01-06T11:29:54;23.75;;;15.40;;
46721;SDS011;32455;43.430;23.136;2024-01-06T11:32:41;18.95;;;13.90;;
46721;SDS011;32455;43.430;23.136;2024-01-06T11:35:27;20.45;;;13.95;;
46721;SDS011;32455;43.430;23.136;2024-01-06T11:38:13;17.42;;;13.88;;
46721;SDS011;32455;43.430;23.136;2024-01-06T11:40:59;21.95;;;14.85;;
46721;SDS011;32455;43.430;23.136;2024-01-06T11:43:44;19.90;;;14.82;;
46721;SDS011;32455;43.430;23.136;2024-01-06T11:46:31;23.00;;;16.23;;
46721;SDS011;32455;43.430;23.136;2024-01-06T11:49:17;22.80;;;16.60;;
46721;SDS011;32455;43.430;23.136;2024-01-06T11:52:05;22.42;;;16.65;;
46721;SDS011;32455;43.430;23.136;2024-01-06T11:54:54;20.13;;;15.27;;
46721;SDS011;32455;43.430;23.136;2024-01-06T11:57:40;28.08;;;16.83;;
46721;SDS011;32455;43.430;23.136;2024-01-06T12:00:26;25.27;;;16.75;;
46721;SDS011;32455;43.430;23.136;2024-01-06T12:03:11;24.90;;;16.75;;
46721;SDS011;32455;43.430;23.136;2024-01-06T12:06:00;19.27;;;14.05;;
46721;SDS011;32455;43.430;23.136;2024-01-06T12:08:47;22.27;;;16.55;;
46721;SDS011;32455;43.430;23.136;2024-01-06T12:11:32;26.65;;;18.60;;
46721;SDS011;32455;43.430;23.136;2024-01-06T12:14:18;23.85;;;17.73;;
46721;SDS011;32455;43.430;23.136;2024-01-06T12:17:04;26.70;;;18.63;;
46721;SDS011;32455;43.430;23.136;2024-01-06T12:19:49;23.45;;;18.55;;
46721;SDS011;32455;43.430;23.136;2024-01-06T12:22:35;23.77;;;18.13;;
46721;SDS011;32455;43.430;23.136;2024-01-06T12:25:24;26.92;;;18.17;;
46721;SDS011;32455;43.430;23.136;2024-01-06T12:28:10;24.95;;;17.60;;
46721;SDS011;32455;43.430;23.136;2024-01-06T12:30:55;23.00;;;18.48;;
46721;SDS011;32455;43.430;23.136;2024-01-06T12:33:43;27.08;;;20.63;;
46721;SDS011;32455;43.430;23.136;2024-01-06T12:36:29;27.17;;;19.33;;
46721;SDS011;32455;43.430;23.136;2024-01-06T12:39:15;28.65;;;20.05;;
46721;SDS011;32455;43.430;23.136;2024-01-06T12:42:04;24.10;;;18.20;;
46721;SDS011;32455;43.430;23.136;2024-01-06T12:44:50;27.67;;;19.73;;
46721;SDS011;32455;43.430;23.136;2024-01-06T12:47:35;28.83;;;21.38;;
46721;SDS011;32455;43.430;23.136;2024-01-06T12:50:20;29.25;;;19.30;;
46721;SDS011;32455;43.430;23.136;2024-01-06T12:53:06;26.52;;;17.65;;
46721;SDS011;32455;43.430;23.136;2024-01-06T12:55:51;26.85;;;19.27;;
46721;SDS011;32455;43.430;23.136;2024-01-06T12:58:36;22.02;;;17.27;;
46721;SDS011;32455;43.430;23.136;2024-01-06T13:01:20;27.23;;;18.63;;
46721;SDS011;32455;43.430;23.136;2024-01-06T13:04:06;24.48;;;16.85;;
46721;SDS011;32455;43.430;23.136;2024-01-06T13:06:51;25.30;;;17.17;;
46721;SDS011;32455;43.430;23.136;2024-01-06T13:09:36;23.88;;;16.88;;
46721;SDS011;32455;43.430;23.136;2024-01-06T13:12:23;25.30;;;17.38;;
46721;SDS011;32455;43.430;23.136;2024-01-06T13:15:09;21.85;;;16.33;;
46721;SDS011;32455;43.430;23.136;2024-01-06T13:17:55;25.67;;;15.68;;
46721;SDS011;32455;43.430;23.136;2024-01-06T13:20:41;21.75;;;15.80;;
46721;SDS011;32455;43.430;23.136;2024-01-06T13:23:28;20.33;;;14.88;;
46721;SDS011;32455;43.430;23.136;2024-01-06T13:26:14;20.02;;;17.15;;
46721;SDS011;32455;43.430;23.136;2024-01-06T13:28:59;30.15;;;18.83;;
46721;SDS011;32455;43.430;23.136;2024-01-06T13:31:46;26.05;;;17.77;;
46721;SDS011;32455;43.430;23.136;2024-01-06T13:34:32;26.05;;;16.98;;
46721;SDS011;32455;43.430;23.136;2024-01-06T13:37:17;29.05;;;18.05;;
46721;SDS011;32455;43.430;23.136;2024-01-06T13:40:03;28.50;;;18.48;;
46721;SDS011;32455;43.430;23.136;2024-01-06T13:42:51;24.30;;;18.35;;
46721;SDS011;32455;43.430;23.136;2024-01-06T13:45:37;21.90;;;16.50;;
46721;SDS011;32455;43.430;23.136;2024-01-06T13:48:21;24.45;;;17.27;;
46721;SDS011;32455;43.430;23.136;2024-01-06T13:51:07;20.85;;;16.30;;
46721;SDS011;32455;43.430;23.136;2024-01-06T13:53:53;24.15;;;17.27;;
46721;SDS011;32455;43.430;23.136;2024-01-06T13:56:39;20.17;;;16.13;;
46721;SDS011;32455;43.430;23.136;2024-01-06T13:59:24;21.88;;;16.27;;
46721;SDS011;32455;43.430;23.136;2024-01-06T14:02:09;20.30;;;15.55;;
46721;SDS011;32455;43.430;23.136;2024-01-06T14:04:55;24.45;;;17.52;;
46721;SDS011;32455;43.430;23.136;2024-01-06T14:07:40;24.63;;;17.08;;
46721;SDS011;32455;43.430;23.136;2024-01-06T14:10:30;21.88;;;16.25;;
46721;SDS011;32455;43.430;23.136;2024-01-06T14:13:16;22.60;;;16.38;;
46721;SDS011;32455;43.430;23.136;2024-01-06T14:16:02;24.27;;;18.30;;
46721;SDS011;32455;43.430;23.136;2024-01-06T14:18:47;22.05;;;17.95;;
46721;SDS011;32455;43.430;23.136;2024-01-06T14:21:33;24.27;;;18.38;;
46721;SDS011;32455;43.430;23.136;2024-01-06T14:24:18;25.65;;;17.45;;
46721;SDS011;32455;43.430;23.136;2024-01-06T14:27:08;25.25;;;17.55;;
46721;SDS011;32455;43.430;23.136;2024-01-06T14:29:53;21.55;;;16.55;;
46721;SDS011;32455;43.430;23.136;2024-01-06T14:32:40;24.70;;;15.77;;
46721;SDS011;32455;43.430;23.136;2024-01-06T14:35:25;21.63;;;16.58;;
46721;SDS011;32455;43.430;23.136;2024-01-06T14:38:09;27.05;;;21.23;;
46721;SDS011;32455;43.430;23.136;2024-01-06T14:40:55;26.13;;;21.23;;
46721;SDS011;32455;43.430;23.136;2024-01-06T14:43:41;22.45;;;18.30;;
46721;SDS011;32455;43.430;23.136;2024-01-06T14:46:26;20.80;;;17.10;;
46721;SDS011;32455;43.430;23.136;2024-01-06T14:49:11;26.17;;;20.70;;
46721;SDS011;32455;43.430;23.136;2024-01-06T14:51:56;25.33;;;21.52;;
46721;SDS011;32455;43.430;23.136;2024-01-06T14:54:41;24.20;;;20.75;;
46721;SDS011;32455;43.430;23.136;2024-01-06T14:57:26;24.52;;;20.00;;
46721;SDS011;32455;43.430;23.136;2024-01-06T15:00:11;23.02;;;16.83;;
46721;SDS011;32455;43.430;23.136;2024-01-06T15:02:57;21.20;;;16.55;;
46721;SDS011;32455;43.430;23.136;2024-01-06T15:05:43;45.45;;;29.48;;
46721;SDS011;32455;43.430;23.136;2024-01-06T15:08:28;24.20;;;18.83;;
46721;SDS011;32455;43.430;23.136;2024-01-06T15:11:13;26.35;;;19.92;;
46721;SDS011;32455;43.430;23.136;2024-01-06T15:13:59;27.00;;;19.65;;
46721;SDS011;32455;43.430;23.136;2024-01-06T15:16:47;27.65;;;20.13;;
46721;SDS011;32455;43.430;23.136;2024-01-06T15:19:33;31.23;;;21.67;;
46721;SDS011;32455;43.430;23.136;2024-01-06T15:22:18;26.40;;;19.58;;
46721;SDS011;32455;43.430;23.136;2024-01-06T15:25:03;29.58;;;22.70;;
46721;SDS011;32455;43.430;23.136;2024-01-06T15:27:51;27.02;;;18.80;;
46721;SDS011;32455;43.430;23.136;2024-01-06T15:30:36;24.00;;;17.13;;
46721;SDS011;32455;43.430;23.136;2024-01-06T15:33:22;23.50;;;16.52;;
46721;SDS011;32455;43.430;23.136;2024-01-06T15:36:08;24.77;;;17.65;;
46721;SDS011;32455;43.430;23.136;2024-01-06T15:38:54;25.15;;;17.45;;
46721;SDS011;32455;43.430;23.136;2024-01-06T15:41:39;25.20;;;17.73;;
46721;SDS011;32455;43.430;23.136;2024-01-06T15:44:25;24.80;;;18.17;;
46721;SDS011;32455;43.430;23.136;2024-01-06T15:47:11;25.88;;;20.00;;
46721;SDS011;32455;43.430;23.136;2024-01-06T15:49:56;23.40;;;17.23;;
46721;SDS011;32455;43.430;23.136;2024-01-06T15:52:42;23.33;;;16.95;;
46721;SDS011;32455;43.430;23.136;2024-01-06T15:55:30;22.45;;;17.58;;
46721;SDS011;32455;43.430;23.136;2024-01-06T15:58:17;21.98;;;16.70;;
46721;SDS011;32455;43.430;23.136;2024-01-06T16:01:03;20.17;;;15.15;;
46721;SDS011;32455;43.430;23.136;2024-01-06T16:03:48;19.60;;;16.17;;